createdAt,value
2024-03-17T00:00:06.742Z,22.80
2024-03-17T00:01:06.774Z,21.90
2024-03-17T00:02:06.681Z,24.90
2024-03-17T00:03:06.677Z,21.50
2024-03-17T00:04:06.669Z,24.50
2024-03-17T00:05:06.646Z,19.20
2024-03-17T00:06:06.644Z,20.10
2024-03-17T00:07:06.640Z,22.30
2024-03-17T00:08:06.611Z,21.00
2024-03-17T00:09:06.737Z,19.90
2024-03-17T00:10:06.569Z,18.60
2024-03-17T00:11:06.571Z,21.80
2024-03-17T00:12:06.574Z,24.00
2024-03-17T00:13:06.576Z,23.20
2024-03-17T00:14:06.546Z,19.40
2024-03-17T00:15:06.545Z,23.30
2024-03-17T00:16:06.562Z,24.50
2024-03-17T00:17:06.540Z,18.50
2024-03-17T00:18:06.480Z,22.30
2024-03-17T00:19:06.528Z,24.20
2024-03-17T00:20:06.528Z,24.10
2024-03-17T00:21:06.450Z,21.60
2024-03-17T00:22:06.432Z,21.70
2024-03-17T00:23:06.452Z,22.30
2024-03-17T00:24:06.476Z,24.80
2024-03-17T00:25:06.424Z,23.50
2024-03-17T00:26:06.358Z,21.40
2024-03-17T00:27:06.437Z,22.30
2024-03-17T00:28:06.314Z,25.10
2024-03-17T00:29:06.368Z,26.10
2024-03-17T00:30:06.290Z,23.50
2024-03-17T00:31:06.294Z,25.60
2024-03-17T00:32:06.285Z,23.80
2024-03-17T00:33:06.247Z,28.50
2024-03-17T00:34:06.233Z,34.40
2024-03-17T00:35:06.225Z,25.20
2024-03-17T00:36:06.248Z,29.90
2024-03-17T00:37:06.232Z,24.00
2024-03-17T00:38:06.200Z,25.50
2024-03-17T00:39:06.191Z,24.20
2024-03-17T00:40:06.177Z,28.60
2024-03-17T00:41:06.186Z,27.20
2024-03-17T00:42:06.175Z,30.60
2024-03-17T00:43:06.142Z,26.30
2024-03-17T00:44:06.115Z,34.70
2024-03-17T00:45:06.092Z,26.10
2024-03-17T00:46:06.155Z,27.80
2024-03-17T00:47:06.075Z,27.90
2024-03-17T00:48:06.046Z,23.40
2024-03-17T00:49:06.062Z,29.90
2024-03-17T00:50:06.042Z,30.60
2024-03-17T00:51:06.041Z,24.70
2024-03-17T00:52:06.011Z,25.90
2024-03-17T00:53:05.994Z,29.80
2024-03-17T00:54:05.958Z,26.60
2024-03-17T00:55:05.991Z,29.00
2024-03-17T00:56:05.962Z,27.90
2024-03-17T00:57:05.975Z,24.80
2024-03-17T00:58:06.040Z,26.70
2024-03-17T00:59:05.956Z,26.20
2024-03-17T01:00:05.894Z,26.20
2024-03-17T01:01:05.951Z,23.70
2024-03-17T01:02:05.880Z,27.00
2024-03-17T01:03:06.003Z,26.50
2024-03-17T01:04:05.916Z,35.30
2024-03-17T01:05:05.869Z,31.20
2024-03-17T01:06:05.851Z,27.60
2024-03-17T01:07:06.010Z,31.80
2024-03-17T01:08:05.846Z,28.90
2024-03-17T01:09:05.837Z,34.10
2024-03-17T01:10:05.857Z,27.40
2024-03-17T01:11:05.762Z,28.60
2024-03-17T01:12:05.857Z,35.20
2024-03-17T01:13:05.754Z,31.30
2024-03-17T01:14:05.764Z,30.80
2024-03-17T01:15:05.751Z,25.80
2024-03-17T01:16:05.778Z,33.10
2024-03-17T01:17:05.717Z,26.10
2024-03-17T01:18:05.645Z,21.80
2024-03-17T01:19:05.668Z,30.00
2024-03-17T01:20:05.636Z,25.10
2024-03-17T01:21:05.670Z,29.00
2024-03-17T01:22:05.678Z,27.20
2024-03-17T01:23:05.587Z,26.60
2024-03-17T01:24:05.590Z,25.90
2024-03-17T01:25:05.641Z,22.90
2024-03-17T01:26:05.585Z,31.10
2024-03-17T01:27:05.592Z,30.30
2024-03-17T01:28:05.597Z,28.10
2024-03-17T01:29:05.525Z,27.90
2024-03-17T01:30:05.489Z,31.10
2024-03-17T01:31:05.527Z,26.70
2024-03-17T01:32:05.514Z,28.70
2024-03-17T01:33:05.504Z,23.40
2024-03-17T01:34:05.542Z,27.30
2024-03-17T01:35:05.421Z,22.50
2024-03-17T01:36:05.403Z,25.50
2024-03-17T01:37:05.457Z,26.60
2024-03-17T01:38:05.366Z,24.90
2024-03-17T01:39:05.386Z,23.90
2024-03-17T01:40:05.500Z,26.20
2024-03-17T01:41:05.386Z,21.50
2024-03-17T01:42:05.359Z,27.80
2024-03-17T01:43:05.323Z,25.80
2024-03-17T01:44:05.304Z,21.90
2024-03-17T01:45:05.287Z,22.50
2024-03-17T01:46:05.313Z,26.80
2024-03-17T01:47:05.268Z,23.80
2024-03-17T01:48:05.275Z,25.80
2024-03-17T01:49:05.233Z,22.80
2024-03-17T01:50:05.226Z,26.10
2024-03-17T01:51:05.223Z,21.70
2024-03-17T01:52:05.198Z,24.10
2024-03-17T01:53:05.190Z,23.80
2024-03-17T01:54:05.181Z,24.10
2024-03-17T01:55:05.207Z,21.00
2024-03-17T01:56:05.156Z,19.80
2024-03-17T01:57:05.136Z,20.30
2024-03-17T01:58:05.214Z,24.90
2024-03-17T01:59:05.105Z,25.10
2024-03-17T02:00:05.207Z,25.10
2024-03-17T02:01:05.135Z,22.40
2024-03-17T02:02:05.227Z,23.30
2024-03-17T02:03:05.183Z,21.30
2024-03-17T02:04:05.181Z,23.70
2024-03-17T02:05:07.536Z,19.40
2024-03-17T02:06:05.021Z,22.30
2024-03-17T02:07:05.048Z,22.90
2024-03-17T02:08:04.997Z,25.80
2024-03-17T02:09:05.228Z,26.20
2024-03-17T02:10:05.024Z,25.90
2024-03-17T02:11:04.959Z,24.60
2024-03-17T02:12:05.029Z,28.50
2024-03-17T02:13:05.029Z,25.70
2024-03-17T02:14:05.032Z,27.70
2024-03-17T02:15:04.897Z,29.20
2024-03-17T02:16:04.925Z,26.20
2024-03-17T02:17:04.868Z,26.30
2024-03-17T02:18:05.007Z,29.00
2024-03-17T02:19:04.927Z,35.70
2024-03-17T02:20:04.869Z,27.80
2024-03-17T02:21:04.807Z,27.30
2024-03-17T02:22:04.862Z,26.50
2024-03-17T02:23:04.757Z,31.40
2024-03-17T02:24:04.781Z,29.50
2024-03-17T02:25:04.790Z,33.30
2024-03-17T02:26:04.728Z,35.70
2024-03-17T02:27:04.722Z,32.90
2024-03-17T02:28:04.688Z,31.90
2024-03-17T02:29:04.751Z,27.40
2024-03-17T02:30:04.814Z,28.30
2024-03-17T02:31:04.838Z,22.70
2024-03-17T02:32:04.703Z,25.90
2024-03-17T02:33:04.626Z,35.20
2024-03-17T02:34:04.629Z,33.80
2024-03-17T02:35:04.678Z,26.60
2024-03-17T02:36:04.589Z,32.50
2024-03-17T02:37:04.592Z,31.60
2024-03-17T02:38:04.556Z,30.30
2024-03-17T02:39:04.583Z,24.90
2024-03-17T02:40:04.608Z,31.90
2024-03-17T02:41:04.507Z,29.60
2024-03-17T02:42:04.541Z,26.30
2024-03-17T02:43:04.517Z,30.30
2024-03-17T02:44:04.538Z,32.00
2024-03-17T02:45:04.528Z,27.10
2024-03-17T02:46:04.512Z,25.60
2024-03-17T02:47:04.509Z,25.40
2024-03-17T02:48:04.477Z,27.00
2024-03-17T02:49:04.444Z,30.30
2024-03-17T02:50:04.622Z,32.70
2024-03-17T02:51:04.638Z,29.80
2024-03-17T02:52:04.825Z,28.70
2024-03-17T02:53:04.561Z,29.10
2024-03-17T02:54:07.859Z,28.50
2024-03-17T02:55:04.566Z,33.00
2024-03-17T02:56:04.403Z,26.60
2024-03-17T02:57:04.442Z,29.80
2024-03-17T02:58:04.650Z,28.10
2024-03-17T02:59:04.618Z,27.00
2024-03-17T03:00:04.453Z,27.50
2024-03-17T03:01:04.310Z,25.60
2024-03-17T03:02:04.393Z,31.00
2024-03-17T03:03:04.286Z,31.90
2024-03-17T03:04:04.266Z,28.80
2024-03-17T03:05:04.198Z,25.40
2024-03-17T03:06:04.216Z,34.30
2024-03-17T03:07:04.234Z,34.50
2024-03-17T03:08:04.219Z,35.60
2024-03-17T03:09:04.185Z,30.20
2024-03-17T03:10:04.229Z,30.90
2024-03-17T03:11:04.283Z,42.90
2024-03-17T03:12:04.112Z,30.90
2024-03-17T03:13:04.115Z,34.10
2024-03-17T03:14:04.086Z,34.40
2024-03-17T03:15:04.089Z,36.50
2024-03-17T03:16:04.109Z,38.00
2024-03-17T03:17:04.203Z,36.60
2024-03-17T03:18:04.049Z,35.00
2024-03-17T03:19:04.016Z,35.10
2024-03-17T03:20:04.041Z,34.50
2024-03-17T03:21:03.987Z,37.40
2024-03-17T03:22:03.980Z,34.60
2024-03-17T03:23:03.954Z,39.90
2024-03-17T03:24:04.108Z,31.20
2024-03-17T03:25:03.995Z,50.70
2024-03-17T03:26:03.896Z,41.90
2024-03-17T03:27:03.886Z,30.20
2024-03-17T03:28:03.923Z,37.20
2024-03-17T03:29:03.916Z,43.80
2024-03-17T03:30:04.002Z,36.10
2024-03-17T03:31:03.843Z,33.80
2024-03-17T03:32:03.862Z,41.00
2024-03-17T03:33:06.486Z,35.70
2024-03-17T03:34:03.902Z,47.50
2024-03-17T03:35:03.781Z,36.00
2024-03-17T03:36:03.792Z,43.50
2024-03-17T03:37:03.796Z,35.00
2024-03-17T03:38:03.784Z,34.60
2024-03-17T03:39:03.810Z,40.60
2024-03-17T03:40:03.727Z,33.90
2024-03-17T03:41:03.690Z,39.10
2024-03-17T03:42:03.753Z,45.10
2024-03-17T03:43:03.719Z,34.20
2024-03-17T03:44:03.732Z,42.80
2024-03-17T03:45:03.663Z,38.10
2024-03-17T03:46:03.629Z,42.00
2024-03-17T03:47:03.771Z,46.80
2024-03-17T03:48:03.710Z,46.10
2024-03-17T03:49:03.655Z,38.70
2024-03-17T03:50:03.591Z,37.00
2024-03-17T03:51:03.708Z,46.70
2024-03-17T03:52:03.620Z,35.00
2024-03-17T03:53:03.554Z,29.50
2024-03-17T03:54:03.568Z,40.10
2024-03-17T03:55:03.553Z,37.50
2024-03-17T03:56:03.522Z,45.00
2024-03-17T03:57:03.479Z,32.40
2024-03-17T03:58:03.521Z,35.90
2024-03-17T03:59:03.630Z,41.10
2024-03-17T04:00:03.479Z,39.00
2024-03-17T04:01:03.502Z,29.90
2024-03-17T04:02:03.552Z,43.90
2024-03-17T04:03:03.783Z,43.90
2024-03-17T04:04:03.386Z,54.70
2024-03-17T04:05:03.392Z,42.40
2024-03-17T04:06:03.391Z,53.90
2024-03-17T04:07:03.386Z,43.60
2024-03-17T04:08:03.345Z,55.10
2024-03-17T04:09:03.454Z,34.80
2024-03-17T04:10:03.336Z,60.90
2024-03-17T04:11:03.318Z,54.50
2024-03-17T04:12:03.298Z,56.00
2024-03-17T04:13:03.295Z,44.40
2024-03-17T04:14:03.424Z,56.80
2024-03-17T04:15:03.274Z,47.50
2024-03-17T04:16:03.221Z,37.90
2024-03-17T04:17:03.242Z,50.90
2024-03-17T04:18:03.396Z,38.10
2024-03-17T04:19:03.246Z,39.10
2024-03-17T04:20:03.184Z,53.20
2024-03-17T04:21:03.149Z,39.90
2024-03-17T04:22:03.347Z,45.10
2024-03-17T04:23:03.125Z,50.00
2024-03-17T04:24:03.171Z,55.30
2024-03-17T04:25:03.150Z,34.20
2024-03-17T04:26:03.101Z,43.20
2024-03-17T04:27:03.106Z,35.70
2024-03-17T04:28:03.091Z,48.60
2024-03-17T04:29:03.045Z,45.50
2024-03-17T04:30:03.088Z,45.00
2024-03-17T04:31:03.178Z,38.20
2024-03-17T04:32:03.124Z,48.90
2024-03-17T04:33:03.072Z,47.50
2024-03-17T04:34:03.069Z,41.30
2024-03-17T04:35:03.016Z,47.30
2024-03-17T04:36:02.995Z,52.00
2024-03-17T04:37:02.945Z,46.10
2024-03-17T04:38:03.085Z,65.10
2024-03-17T04:39:02.943Z,52.00
2024-03-17T04:40:02.930Z,46.50
2024-03-17T04:41:02.889Z,55.00
2024-03-17T04:42:02.969Z,58.50
2024-03-17T04:43:02.849Z,44.80
2024-03-17T04:44:02.900Z,48.40
2024-03-17T04:45:02.841Z,45.80
2024-03-17T04:46:02.815Z,44.50
2024-03-17T04:47:02.841Z,42.50
2024-03-17T04:48:02.804Z,46.00
2024-03-17T04:49:02.872Z,38.40
2024-03-17T04:50:02.783Z,35.30
2024-03-17T04:51:02.767Z,40.80
2024-03-17T04:52:02.741Z,44.70
2024-03-17T04:53:02.778Z,60.50
2024-03-17T04:54:02.714Z,52.90
2024-03-17T04:55:02.809Z,56.20
2024-03-17T04:56:02.723Z,38.50
2024-03-17T04:57:02.671Z,61.30
2024-03-17T04:58:02.871Z,37.70
2024-03-17T04:59:02.792Z,39.90
2024-03-17T05:00:02.639Z,55.30
2024-03-17T05:01:02.678Z,49.10
2024-03-17T05:02:02.608Z,45.40
2024-03-17T05:03:02.585Z,54.20
2024-03-17T05:04:02.591Z,51.00
2024-03-17T05:05:02.639Z,47.20
2024-03-17T05:06:02.666Z,47.20
2024-03-17T05:07:02.576Z,50.20
2024-03-17T05:08:02.548Z,54.60
2024-03-17T05:09:02.532Z,43.70
2024-03-17T05:10:06.090Z,49.10
2024-03-17T05:11:02.532Z,51.10
2024-03-17T05:12:02.474Z,44.40
2024-03-17T05:13:02.495Z,31.00
2024-03-17T05:14:02.517Z,38.10
2024-03-17T05:15:02.455Z,39.00
2024-03-17T05:16:02.546Z,41.70
2024-03-17T05:17:02.404Z,44.00
2024-03-17T05:18:02.396Z,42.80
2024-03-17T05:19:02.442Z,42.50
2024-03-17T05:20:02.388Z,56.40
2024-03-17T05:21:02.327Z,48.30
2024-03-17T05:22:02.336Z,51.00
2024-03-17T05:23:02.467Z,38.60
2024-03-17T05:24:02.298Z,40.30
2024-03-17T05:25:02.319Z,48.00
2024-03-17T05:26:02.364Z,45.10
2024-03-17T05:27:02.250Z,46.20
2024-03-17T05:28:02.243Z,38.80
2024-03-17T05:29:02.264Z,40.90
2024-03-17T05:30:02.230Z,48.20
2024-03-17T05:31:02.205Z,35.90
2024-03-17T05:32:02.190Z,38.30
2024-03-17T05:33:02.272Z,32.40
2024-03-17T05:34:03.290Z,40.20
2024-03-17T05:35:02.187Z,44.00
2024-03-17T05:36:02.232Z,39.10
2024-03-17T05:37:02.149Z,40.30
2024-03-17T05:38:02.232Z,36.80
2024-03-17T05:39:02.116Z,47.90
2024-03-17T05:40:02.094Z,42.40
2024-03-17T05:41:02.183Z,45.00
2024-03-17T05:42:02.161Z,44.70
2024-03-17T05:43:02.064Z,44.40
2024-03-17T05:44:02.122Z,45.80
2024-03-17T05:45:02.013Z,41.90
2024-03-17T05:46:02.080Z,44.40
2024-03-17T05:47:01.994Z,37.50
2024-03-17T05:48:01.969Z,44.30
2024-03-17T05:49:02.131Z,36.00
2024-03-17T05:50:01.924Z,41.60
2024-03-17T05:51:01.927Z,51.30
2024-03-17T05:52:01.908Z,43.00
2024-03-17T05:53:01.893Z,41.30
2024-03-17T05:54:01.911Z,40.60
2024-03-17T05:55:01.881Z,42.20
2024-03-17T05:56:01.856Z,51.60
2024-03-17T05:57:01.839Z,36.60
2024-03-17T05:58:01.820Z,41.10
2024-03-17T05:59:01.832Z,36.70
2024-03-17T06:00:01.829Z,36.90
2024-03-17T06:01:01.784Z,45.10
2024-03-17T06:02:01.780Z,54.00
2024-03-17T06:03:01.834Z,42.30
2024-03-17T06:04:02.316Z,48.90
2024-03-17T06:05:01.735Z,39.50
2024-03-17T06:06:01.728Z,37.60
2024-03-17T06:07:01.727Z,25.30
2024-03-17T06:08:01.714Z,35.10
2024-03-17T06:09:01.687Z,30.50
2024-03-17T06:10:01.658Z,39.60
2024-03-17T06:11:01.648Z,31.10
2024-03-17T06:12:01.736Z,27.30
2024-03-17T06:13:01.639Z,31.50
2024-03-17T06:14:01.646Z,35.90
2024-03-17T06:15:01.634Z,44.50
2024-03-17T06:16:01.587Z,38.50
2024-03-17T06:17:01.697Z,34.80
2024-03-17T06:18:01.559Z,34.90
2024-03-17T06:19:01.541Z,31.90
2024-03-17T06:20:01.552Z,31.40
2024-03-17T06:21:01.572Z,35.20
2024-03-17T06:22:01.488Z,27.70
2024-03-17T06:23:01.485Z,22.80
2024-03-17T06:24:01.463Z,25.00
2024-03-17T06:25:02.069Z,26.50
2024-03-17T06:26:01.519Z,31.30
2024-03-17T06:27:01.512Z,31.10
2024-03-17T06:28:01.447Z,23.30
2024-03-17T06:29:01.396Z,32.00
2024-03-17T06:30:01.437Z,30.80
2024-03-17T06:31:01.382Z,41.90
2024-03-17T06:32:01.380Z,29.60
2024-03-17T06:33:01.400Z,31.60
2024-03-17T06:34:01.364Z,37.50
2024-03-17T06:35:01.639Z,38.90
2024-03-17T06:36:01.295Z,29.40
2024-03-17T06:37:01.364Z,23.30
2024-03-17T06:38:01.341Z,24.80
2024-03-17T06:39:01.357Z,36.40
2024-03-17T06:40:01.278Z,28.40
2024-03-17T06:41:01.243Z,32.90
2024-03-17T06:42:01.263Z,31.60
2024-03-17T06:43:01.266Z,30.30
2024-03-17T06:44:01.199Z,33.30
2024-03-17T06:45:01.238Z,28.30
2024-03-17T06:46:01.198Z,23.80
2024-03-17T06:47:01.223Z,34.20
2024-03-17T06:48:01.169Z,26.10
2024-03-17T06:49:01.138Z,35.90
2024-03-17T06:50:01.135Z,26.00
2024-03-17T06:51:01.129Z,22.40
2024-03-17T06:52:01.165Z,25.90
2024-03-17T06:53:01.078Z,24.60
2024-03-17T06:54:01.096Z,27.60
2024-03-17T06:55:01.108Z,32.00
2024-03-17T06:56:01.031Z,28.50
2024-03-17T06:57:01.069Z,25.00
2024-03-17T06:58:01.004Z,21.10
2024-03-17T06:59:00.994Z,25.60
2024-03-17T07:00:01.045Z,28.20
2024-03-17T07:01:00.974Z,27.40
2024-03-17T07:02:00.954Z,26.50
2024-03-17T07:03:00.931Z,23.20
2024-03-17T07:04:00.948Z,29.90
2024-03-17T07:05:00.922Z,24.20
2024-03-17T07:06:00.898Z,22.00
2024-03-17T07:07:00.895Z,19.70
2024-03-17T07:08:00.886Z,20.60
2024-03-17T07:09:00.843Z,23.00
2024-03-17T07:10:00.832Z,19.90
2024-03-17T07:11:00.832Z,32.20
2024-03-17T07:12:00.858Z,28.40
2024-03-17T07:13:00.782Z,22.20
2024-03-17T07:14:00.783Z,19.50
2024-03-17T07:15:00.758Z,22.60
2024-03-17T07:16:00.762Z,18.90
2024-03-17T07:17:00.833Z,19.70
2024-03-17T07:18:00.711Z,19.70
2024-03-17T07:19:00.708Z,15.60
2024-03-17T07:20:00.710Z,16.60
2024-03-17T07:21:00.693Z,19.60
2024-03-17T07:22:00.719Z,14.80
2024-03-17T07:23:00.687Z,22.00
2024-03-17T07:24:00.691Z,15.50
2024-03-17T07:25:00.673Z,14.50
2024-03-17T07:26:00.605Z,15.90
2024-03-17T07:27:00.602Z,16.10
2024-03-17T07:28:00.653Z,18.30
2024-03-17T07:29:00.598Z,15.90
2024-03-17T07:30:00.599Z,16.40
2024-03-17T07:31:00.592Z,18.00
2024-03-17T07:32:00.521Z,19.70
2024-03-17T07:33:00.548Z,13.60
2024-03-17T07:34:00.518Z,16.00
2024-03-17T07:35:00.523Z,21.40
2024-03-17T07:36:00.468Z,16.50
2024-03-17T07:37:00.500Z,19.10
2024-03-17T07:38:00.454Z,24.70
2024-03-17T07:39:00.433Z,19.20
2024-03-17T07:40:00.483Z,15.10
2024-03-17T07:41:00.400Z,21.10
2024-03-17T07:42:00.383Z,19.10
2024-03-17T07:43:00.436Z,19.00
2024-03-17T07:44:00.450Z,16.80
2024-03-17T07:45:00.387Z,19.40
2024-03-17T07:46:00.378Z,19.90
2024-03-17T07:47:00.318Z,19.80
2024-03-17T07:48:00.301Z,17.30
2024-03-17T07:49:00.318Z,22.60
2024-03-17T07:50:00.390Z,17.00
2024-03-17T07:51:00.285Z,19.40
2024-03-17T07:52:00.375Z,21.10
2024-03-17T07:53:00.278Z,21.10
2024-03-17T07:54:00.239Z,23.80
2024-03-17T07:55:00.236Z,22.00
2024-03-17T07:56:00.251Z,20.10
2024-03-17T07:57:00.203Z,17.70
2024-03-17T07:58:00.163Z,17.70
2024-03-17T07:59:00.182Z,17.10
2024-03-17T08:00:00.260Z,15.70
2024-03-17T08:01:00.156Z,17.30
2024-03-17T08:02:00.290Z,20.20
2024-03-17T08:03:00.202Z,16.90
2024-03-17T08:04:00.105Z,18.90
2024-03-17T08:05:00.195Z,17.00
2024-03-17T08:06:00.164Z,18.20
2024-03-17T08:07:00.125Z,17.60
2024-03-17T08:08:00.094Z,16.40
2024-03-17T08:09:00.108Z,20.00
2024-03-17T08:10:00.206Z,17.30
2024-03-17T08:11:00.001Z,19.50
2024-03-17T08:12:00.027Z,16.30
2024-03-17T08:13:00.052Z,19.70
2024-03-17T08:13:59.991Z,19.40
2024-03-17T08:15:00.022Z,17.10
2024-03-17T08:15:59.925Z,15.60
2024-03-17T08:16:59.904Z,19.40
2024-03-17T08:18:00.006Z,14.50
2024-03-17T08:18:59.902Z,18.40
2024-03-17T08:20:00.002Z,18.40
2024-03-17T08:20:59.906Z,17.30
2024-03-17T08:21:59.917Z,16.60
2024-03-17T08:23:00.008Z,20.10
2024-03-17T08:23:59.871Z,21.00
2024-03-17T08:24:59.790Z,15.10
2024-03-17T08:25:59.822Z,17.40
2024-03-17T08:26:59.774Z,15.80
2024-03-17T08:27:59.936Z,17.00
2024-03-17T08:28:59.824Z,18.30
2024-03-17T08:29:59.760Z,15.50
2024-03-17T08:30:59.708Z,16.40
2024-03-17T08:31:59.756Z,17.30
2024-03-17T08:32:59.721Z,14.60
2024-03-17T08:33:59.736Z,16.90
2024-03-17T08:34:59.831Z,12.80
2024-03-17T08:35:59.681Z,17.30
2024-03-17T08:36:59.654Z,17.60
2024-03-17T08:37:59.610Z,17.20
2024-03-17T08:38:59.628Z,16.50
2024-03-17T08:39:59.622Z,16.50
2024-03-17T08:40:59.739Z,18.60
2024-03-17T08:41:59.588Z,18.70
2024-03-17T08:42:59.666Z,15.20
2024-03-17T08:43:59.600Z,15.20
2024-03-17T08:45:01.880Z,18.20
2024-03-17T08:45:59.713Z,12.80
2024-03-17T08:46:59.479Z,13.50
2024-03-17T08:47:59.478Z,12.50
2024-03-17T08:48:59.475Z,13.60
2024-03-17T08:49:59.437Z,15.20
2024-03-17T08:50:59.520Z,12.60
2024-03-17T08:51:59.436Z,13.10
2024-03-17T08:52:59.412Z,15.40
2024-03-17T08:53:59.384Z,14.50
2024-03-17T08:54:59.536Z,13.60
2024-03-17T08:55:59.369Z,11.90
2024-03-17T08:56:59.566Z,13.10
2024-03-17T08:57:59.362Z,12.70
2024-03-17T08:58:59.317Z,10.90
2024-03-17T08:59:59.335Z,11.40
2024-03-17T09:00:59.431Z,14.20
2024-03-17T09:01:59.292Z,12.10
2024-03-17T09:02:59.298Z,13.70
2024-03-17T09:03:59.277Z,10.90
2024-03-17T09:04:59.229Z,13.90
2024-03-17T09:05:59.234Z,12.60
2024-03-17T09:06:59.203Z,14.30
2024-03-17T09:07:59.236Z,12.20
2024-03-17T09:08:59.219Z,13.70
2024-03-17T09:09:59.171Z,16.00
2024-03-17T09:10:59.171Z,15.40
2024-03-17T09:11:59.205Z,11.50
2024-03-17T09:12:59.278Z,13.90
2024-03-17T09:13:59.184Z,16.50
2024-03-17T09:14:59.320Z,14.30
2024-03-17T09:15:59.332Z,12.90
2024-03-17T09:16:59.095Z,15.10
2024-03-17T09:17:59.089Z,11.40
2024-03-17T09:18:59.264Z,11.10
2024-03-17T09:19:59.020Z,10.90
2024-03-17T09:20:59.010Z,9.80
2024-03-17T09:21:59.165Z,9.60
2024-03-17T09:22:59.144Z,10.70
2024-03-17T09:23:59.117Z,9.90
2024-03-17T09:24:59.056Z,10.70
2024-03-17T09:25:58.957Z,10.50
2024-03-17T09:26:59.063Z,8.90
2024-03-17T09:27:59.105Z,12.90
2024-03-17T09:28:58.963Z,8.60
2024-03-17T09:29:58.981Z,11.30
2024-03-17T09:30:58.943Z,8.00
2024-03-17T09:31:58.869Z,10.40
2024-03-17T09:32:58.851Z,7.80
2024-03-17T09:33:58.881Z,9.10
2024-03-17T09:34:58.888Z,11.00
2024-03-17T09:35:58.867Z,14.20
2024-03-17T09:36:58.849Z,9.90
2024-03-17T09:37:58.858Z,7.00
2024-03-17T09:38:58.808Z,9.00
2024-03-17T09:39:58.765Z,11.40
2024-03-17T09:40:58.774Z,8.20
2024-03-17T09:41:58.723Z,9.50
2024-03-17T09:43:01.460Z,10.50
2024-03-17T09:43:59.215Z,11.10
2024-03-17T09:44:58.813Z,12.40
2024-03-17T09:45:58.665Z,12.70
2024-03-17T09:46:58.770Z,14.30
2024-03-17T09:47:58.640Z,11.30
2024-03-17T09:48:58.629Z,12.60
2024-03-17T09:49:58.786Z,9.00
2024-03-17T09:50:58.625Z,8.60
2024-03-17T09:51:58.579Z,9.20
2024-03-17T09:52:58.563Z,10.60
2024-03-17T09:53:58.555Z,10.80
2024-03-17T09:54:58.618Z,13.00
2024-03-17T09:55:58.539Z,9.00
2024-03-17T09:56:58.705Z,10.70
2024-03-17T09:57:58.509Z,10.30
2024-03-17T09:58:58.525Z,9.80
2024-03-17T09:59:58.470Z,9.50
2024-03-17T10:00:58.460Z,10.20
2024-03-17T10:01:58.449Z,9.90
2024-03-17T10:02:58.533Z,11.10
2024-03-17T10:03:58.482Z,11.60
2024-03-17T10:04:58.481Z,9.50
2024-03-17T10:05:58.374Z,10.80
2024-03-17T10:06:58.398Z,11.80
2024-03-17T10:07:58.365Z,9.00
2024-03-17T10:08:58.367Z,10.20
2024-03-17T10:09:58.345Z,9.80
2024-03-17T10:10:58.353Z,9.20
2024-03-17T10:11:58.296Z,11.20
2024-03-17T10:12:58.306Z,10.30
2024-03-17T10:13:58.280Z,9.60
2024-03-17T10:14:58.288Z,11.90
2024-03-17T10:15:58.256Z,9.30
2024-03-17T10:16:58.268Z,9.00
2024-03-17T10:17:58.221Z,9.00
2024-03-17T10:18:58.226Z,8.00
2024-03-17T10:20:00.462Z,9.00
2024-03-17T10:20:58.210Z,11.30
2024-03-17T10:21:58.191Z,8.80
2024-03-17T10:22:58.176Z,7.10
2024-03-17T10:23:58.180Z,8.60
2024-03-17T10:24:58.123Z,8.30
2024-03-17T10:25:58.208Z,9.80
2024-03-17T10:26:58.119Z,7.60
2024-03-17T10:27:58.119Z,9.20
2024-03-17T10:28:58.046Z,10.80
2024-03-17T10:29:58.063Z,11.00
2024-03-17T10:30:58.028Z,10.70
2024-03-17T10:31:58.058Z,12.90
2024-03-17T10:32:58.031Z,10.20
2024-03-17T10:34:06.415Z,9.90
2024-03-17T10:34:59.041Z,9.70
2024-03-17T10:35:58.068Z,10.40
2024-03-17T10:36:57.976Z,7.60
2024-03-17T10:37:57.969Z,9.20
2024-03-17T10:38:58.031Z,7.10
2024-03-17T10:39:57.929Z,8.50
2024-03-17T10:40:57.937Z,6.40
2024-03-17T10:41:57.962Z,11.30
2024-03-17T10:42:57.900Z,9.20
2024-03-17T10:43:57.872Z,9.10
2024-03-17T10:44:57.839Z,11.80
2024-03-17T10:45:57.841Z,10.90
2024-03-17T10:46:57.811Z,9.60
2024-03-17T10:47:57.852Z,6.50
2024-03-17T10:48:57.872Z,9.70
2024-03-17T10:49:57.843Z,11.90
2024-03-17T10:50:57.781Z,8.70
2024-03-17T10:51:57.758Z,10.00
2024-03-17T10:52:57.830Z,13.70
2024-03-17T10:53:57.767Z,8.00
2024-03-17T10:54:57.691Z,9.80
2024-03-17T10:55:58.216Z,7.90
2024-03-17T10:56:57.677Z,10.00
2024-03-17T10:57:57.679Z,9.50
2024-03-17T10:58:57.717Z,12.70
2024-03-17T10:59:57.682Z,10.80
2024-03-17T11:00:57.651Z,10.30
2024-03-17T11:01:57.643Z,8.00
2024-03-17T11:02:57.617Z,9.60
2024-03-17T11:03:57.670Z,8.40
2024-03-17T11:04:57.578Z,7.80
2024-03-17T11:05:57.563Z,9.40
2024-03-17T11:06:57.757Z,8.20
2024-03-17T11:07:57.584Z,10.20
2024-03-17T11:08:57.533Z,9.90
2024-03-17T11:09:57.509Z,14.50
2024-03-17T11:10:57.519Z,9.40
2024-03-17T11:11:57.601Z,11.90
2024-03-17T11:12:57.457Z,8.00
2024-03-17T11:13:57.447Z,9.30
2024-03-17T11:14:57.473Z,10.30
2024-03-17T11:15:57.428Z,10.30
2024-03-17T11:16:57.514Z,14.00
2024-03-17T11:17:58.636Z,7.10
2024-03-17T11:18:57.359Z,10.30
2024-03-17T11:19:57.403Z,8.10
2024-03-17T11:20:57.360Z,7.10
2024-03-17T11:21:57.340Z,8.70
2024-03-17T11:22:57.325Z,9.20
2024-03-17T11:23:57.402Z,7.50
2024-03-17T11:24:57.356Z,10.60
2024-03-17T11:25:57.314Z,7.50
2024-03-17T11:26:57.254Z,12.60
2024-03-17T11:27:57.246Z,11.50
2024-03-17T11:28:57.277Z,6.30
2024-03-17T11:29:57.212Z,9.10
2024-03-17T11:30:57.212Z,9.90
2024-03-17T11:31:57.185Z,10.50
2024-03-17T11:32:57.164Z,9.90
2024-03-17T11:33:57.208Z,10.80
2024-03-17T11:34:57.142Z,6.10
2024-03-17T11:35:57.125Z,7.80
2024-03-17T11:36:57.106Z,7.90
2024-03-17T11:37:57.100Z,8.40
2024-03-17T11:38:57.085Z,9.80
2024-03-17T11:39:57.135Z,10.80
2024-03-17T11:40:57.056Z,10.10
2024-03-17T11:41:57.101Z,8.80
2024-03-17T11:42:57.013Z,17.80
2024-03-17T11:43:57.018Z,12.10
2024-03-17T11:44:57.024Z,9.20
2024-03-17T11:45:57.016Z,8.00
2024-03-17T11:47:07.831Z,7.90
2024-03-17T11:47:58.009Z,9.50
2024-03-17T11:48:56.973Z,8.00
2024-03-17T11:49:56.955Z,8.90
2024-03-17T11:50:57.103Z,7.40
2024-03-17T11:51:56.912Z,6.50
2024-03-17T11:52:56.917Z,9.10
2024-03-17T11:53:56.904Z,7.80
2024-03-17T11:54:56.891Z,8.70
2024-03-17T11:55:56.871Z,7.00
2024-03-17T11:56:56.839Z,7.10
2024-03-17T11:57:56.829Z,7.40
2024-03-17T11:58:56.845Z,9.30
2024-03-17T11:59:56.789Z,7.10
2024-03-17T12:00:56.771Z,7.30
2024-03-17T12:01:56.806Z,9.80
2024-03-17T12:03:03.357Z,7.70
2024-03-17T12:03:57.757Z,7.10
2024-03-17T12:04:56.763Z,6.20
2024-03-17T12:05:56.753Z,8.60
2024-03-17T12:06:56.687Z,8.40
2024-03-17T12:07:56.675Z,9.60
2024-03-17T12:08:56.691Z,9.50
2024-03-17T12:09:56.708Z,8.10
2024-03-17T12:10:56.733Z,5.80
2024-03-17T12:11:56.691Z,7.30
2024-03-17T12:12:56.606Z,10.30
2024-03-17T12:13:56.636Z,7.30
2024-03-17T12:14:56.642Z,8.40
2024-03-17T12:15:56.572Z,7.20
2024-03-17T12:16:56.552Z,6.60
2024-03-17T12:17:56.545Z,7.20
2024-03-17T12:18:56.529Z,7.70
2024-03-17T12:19:56.559Z,7.00
2024-03-17T12:20:56.496Z,7.80
2024-03-17T12:21:56.487Z,7.40
2024-03-17T12:22:56.479Z,8.20
2024-03-17T12:23:56.515Z,6.80
2024-03-17T12:24:56.441Z,7.40
2024-03-17T12:25:56.440Z,8.30
2024-03-17T12:26:56.410Z,7.70
2024-03-17T12:27:56.433Z,6.90
2024-03-17T12:28:56.389Z,9.90
2024-03-17T12:29:56.402Z,7.90
2024-03-17T12:30:56.352Z,9.20
2024-03-17T12:31:56.348Z,6.90
2024-03-17T12:32:56.381Z,6.70
2024-03-17T12:33:56.325Z,6.70
2024-03-17T12:34:56.318Z,9.30
2024-03-17T12:35:56.294Z,8.30
2024-03-17T12:36:56.289Z,9.50
2024-03-17T12:37:56.306Z,7.20
2024-03-17T12:38:56.256Z,6.80
2024-03-17T12:39:56.228Z,8.10
2024-03-17T12:40:56.227Z,7.70
2024-03-17T12:41:56.260Z,9.20
2024-03-17T12:42:56.188Z,9.10
2024-03-17T12:43:56.212Z,8.70
2024-03-17T12:44:56.164Z,6.30
2024-03-17T12:45:56.180Z,6.20
2024-03-17T12:46:56.133Z,8.00
2024-03-17T12:47:56.133Z,7.50
2024-03-17T12:48:56.126Z,7.40
2024-03-17T12:49:56.193Z,8.60
2024-03-17T12:50:56.079Z,6.80
2024-03-17T12:51:56.105Z,7.30
2024-03-17T12:52:56.066Z,5.80
2024-03-17T12:53:56.040Z,8.20
2024-03-17T12:54:56.053Z,8.00
2024-03-17T12:55:56.047Z,8.90
2024-03-17T12:56:56.013Z,8.60